createdAt,value
2022-08-08T00:00:52.966Z,79.40
2022-08-08T00:03:00.671Z,79.90
2022-08-08T00:06:02.846Z,80.70
2022-08-08T00:08:39.955Z,80.30
2022-08-08T00:11:17.241Z,80.40
2022-08-08T00:14:15.273Z,80.60
2022-08-08T00:16:56.759Z,80.80
2022-08-08T00:19:30.585Z,81.60
2022-08-08T00:22:11.522Z,81.20
2022-08-08T00:24:46.640Z,81.50
2022-08-08T00:27:19.632Z,81.40
2022-08-08T00:29:55.145Z,81.80
2022-08-08T00:32:35.080Z,81.90
2022-08-08T00:35:29.284Z,82.00
2022-08-08T00:38:32.098Z,82.20
2022-08-08T00:42:08.394Z,82.50
2022-08-08T00:44:53.017Z,82.40
2022-08-08T00:48:30.338Z,82.50
2022-08-08T00:51:42.319Z,82.50
2022-08-08T00:54:53.472Z,82.90
2022-08-08T00:58:03.915Z,83.00
2022-08-08T01:00:50.652Z,83.20
2022-08-08T01:04:04.481Z,83.30
2022-08-08T01:07:19.429Z,83.60
2022-08-08T01:10:39.755Z,83.90
2022-08-08T01:13:58.091Z,84.10
2022-08-08T01:17:35.083Z,84.30
2022-08-08T01:20:44.286Z,84.80
2022-08-08T01:24:03.345Z,85.20
2022-08-08T01:27:21.089Z,85.80
2022-08-08T01:30:28.094Z,86.50
2022-08-08T01:34:00.292Z,86.90
2022-08-08T01:37:17.497Z,87.10
2022-08-08T01:40:15.782Z,87.20
2022-08-08T01:42:51.986Z,87.50
2022-08-08T01:45:50.355Z,87.80
2022-08-08T01:48:43.824Z,88.10
2022-08-08T01:52:41.159Z,87.80
2022-08-08T01:55:27.112Z,88.00
2022-08-08T01:58:38.403Z,88.50
2022-08-08T02:01:22.109Z,89.10
2022-08-08T02:04:05.931Z,89.00
2022-08-08T02:07:00.764Z,89.10
2022-08-08T02:10:11.624Z,89.20
2022-08-08T02:12:51.678Z,89.30
2022-08-08T02:15:30.286Z,89.40
2022-08-08T02:18:16.717Z,89.70
2022-08-08T02:21:08.607Z,89.90
2022-08-08T02:23:49.702Z,90.00
2022-08-08T02:26:29.759Z,90.10
2022-08-08T02:29:21.549Z,90.20
2022-08-08T02:32:15.752Z,90.40
2022-08-08T02:36:03.503Z,90.60
2022-08-08T02:38:56.985Z,90.70
2022-08-08T02:41:59.276Z,91.00
2022-08-08T02:45:18.699Z,91.10
2022-08-08T02:48:28.874Z,91.30
2022-08-08T02:51:55.550Z,91.40
2022-08-08T02:55:03.276Z,91.50
2022-08-08T02:58:17.652Z,91.70
2022-08-08T03:01:19.217Z,91.80
2022-08-08T03:05:04.164Z,91.90
2022-08-08T03:07:58.249Z,92.20
2022-08-08T03:10:58.499Z,92.40
2022-08-08T03:15:58.221Z,92.60
2022-08-08T03:16:48.712Z,92.70
2022-08-08T03:19:51.154Z,93.10
2022-08-08T03:22:38.792Z,92.90
2022-08-08T03:25:18.782Z,93.00
2022-08-08T03:27:56.642Z,93.10
2022-08-08T03:30:27.941Z,93.20
2022-08-08T03:33:56.634Z,93.40
2022-08-08T03:36:04.244Z,93.50
2022-08-08T03:38:55.822Z,93.70
2022-08-08T03:42:11.767Z,93.80
2022-08-08T03:44:25.651Z,94.00
2022-08-08T03:46:55.365Z,94.30
2022-08-08T03:49:56.811Z,94.50
2022-08-08T03:52:17.100Z,94.70
2022-08-08T03:55:01.779Z,94.90
2022-08-08T03:58:32.222Z,95.00
2022-08-08T04:00:27.829Z,95.00
2022-08-08T04:03:11.535Z,95.20
2022-08-08T04:05:49.711Z,95.30
2022-08-08T04:08:32.903Z,95.30
2022-08-08T04:11:10.871Z,95.50
2022-08-08T04:14:04.272Z,95.50
2022-08-08T04:16:40.772Z,95.50
2022-08-08T04:19:23.833Z,95.50
2022-08-08T04:21:56.505Z,95.40
2022-08-08T04:24:29.395Z,95.40
2022-08-08T04:27:02.299Z,95.40
2022-08-08T04:29:37.432Z,95.50
2022-08-08T04:32:14.349Z,95.60
2022-08-08T04:34:59.445Z,95.70
2022-08-08T04:37:34.373Z,95.80
2022-08-08T04:40:12.438Z,95.80
2022-08-08T04:42:57.007Z,95.90
2022-08-08T04:45:47.488Z,95.80
2022-08-08T04:48:22.062Z,95.80
2022-08-08T04:50:50.942Z,95.70
2022-08-08T04:54:36.978Z,95.80
2022-08-08T04:56:18.096Z,95.80
2022-08-08T04:58:46.318Z,95.80
2022-08-08T05:01:19.898Z,95.90
2022-08-08T05:04:09.078Z,95.90
2022-08-08T05:06:42.806Z,96.00
2022-08-08T05:09:12.563Z,96.20
2022-08-08T05:11:47.612Z,96.30
2022-08-08T05:14:26.260Z,96.30
2022-08-08T05:17:01.482Z,96.30
2022-08-08T05:20:08.982Z,96.30
2022-08-08T05:22:31.791Z,96.20
2022-08-08T05:25:01.698Z,96.40
2022-08-08T05:27:33.113Z,96.50
2022-08-08T05:30:03.197Z,96.60
2022-08-08T05:32:45.311Z,96.70
2022-08-08T05:35:23.488Z,96.60
2022-08-08T05:37:59.693Z,96.70
2022-08-08T05:40:54.445Z,96.70
2022-08-08T05:44:02.215Z,96.60
2022-08-08T05:46:16.974Z,96.60
2022-08-08T05:48:49.866Z,96.50
2022-08-08T05:51:22.685Z,96.40
2022-08-08T05:54:27.565Z,96.40
2022-08-08T05:56:46.932Z,96.50
2022-08-08T05:59:59.509Z,96.40
2022-08-08T06:02:33.703Z,96.30
2022-08-08T06:05:06.777Z,96.30
2022-08-08T06:08:02.950Z,96.30
2022-08-08T06:10:41.120Z,96.40
2022-08-08T06:13:12.313Z,96.20
2022-08-08T06:15:50.829Z,96.10
2022-08-08T06:18:27.607Z,96.10
2022-08-08T06:20:59.651Z,95.90
2022-08-08T06:23:53.371Z,96.00
2022-08-08T06:26:45.556Z,95.80
2022-08-08T06:29:56.791Z,95.80
2022-08-08T06:32:21.040Z,95.50
2022-08-08T06:35:11.591Z,95.50
2022-08-08T06:37:55.933Z,95.40
2022-08-08T06:40:31.982Z,95.40
2022-08-08T06:43:09.472Z,95.30
2022-08-08T06:45:53.090Z,95.10
2022-08-08T06:48:22.427Z,94.60
2022-08-08T06:50:56.439Z,94.60
2022-08-08T06:53:39.957Z,94.60
2022-08-08T06:56:16.714Z,94.80
2022-08-08T06:58:45.544Z,94.80
2022-08-08T07:02:17.446Z,94.70
2022-08-08T07:04:40.160Z,94.60
2022-08-08T07:07:10.652Z,94.40
2022-08-08T07:09:56.620Z,94.10
2022-08-08T07:12:40.075Z,93.90
2022-08-08T07:15:23.264Z,93.50
2022-08-08T07:18:35.113Z,93.40
2022-08-08T07:21:01.863Z,93.10
2022-08-08T07:24:02.097Z,92.80
2022-08-08T07:26:35.893Z,92.60
2022-08-08T07:29:08.325Z,92.30
2022-08-08T07:31:45.038Z,92.30
2022-08-08T07:34:20.352Z,92.50
2022-08-08T07:37:11.912Z,92.10
2022-08-08T07:39:56.039Z,92.00
2022-08-08T07:42:33.271Z,92.00
2022-08-08T07:45:05.824Z,92.10
2022-08-08T07:47:39.069Z,92.00
2022-08-08T07:50:11.549Z,91.40
2022-08-08T07:52:46.698Z,91.60
2022-08-08T07:55:23.317Z,91.60
2022-08-08T07:58:04.450Z,91.40
2022-08-08T08:00:41.822Z,91.80
2022-08-08T08:03:23.940Z,91.70
2022-08-08T08:06:00.661Z,91.50
2022-08-08T08:08:50.430Z,91.50
2022-08-08T08:11:33.861Z,91.50
2022-08-08T08:14:19.244Z,90.80
2022-08-08T08:16:50.806Z,91.10
2022-08-08T08:19:22.742Z,91.10
2022-08-08T08:21:58.094Z,90.50
2022-08-08T08:24:36.801Z,90.80
2022-08-08T08:27:08.280Z,90.90
2022-08-08T08:29:40.255Z,90.70
2022-08-08T08:32:11.952Z,90.60
2022-08-08T08:34:52.637Z,90.60
2022-08-08T08:37:27.099Z,90.50
2022-08-08T08:40:00.807Z,90.60
2022-08-08T08:42:35.858Z,90.20
2022-08-08T08:45:21.318Z,89.60
2022-08-08T08:47:58.531Z,89.60
2022-08-08T08:50:35.095Z,88.20
2022-08-08T08:53:27.637Z,87.80
2022-08-08T08:56:08.830Z,88.00
2022-08-08T08:58:43.348Z,87.80
2022-08-08T09:01:26.800Z,87.60
2022-08-08T09:04:02.394Z,87.20
2022-08-08T09:06:50.042Z,86.90
2022-08-08T09:09:36.212Z,86.20
2022-08-08T09:12:19.921Z,85.90
2022-08-08T09:14:51.545Z,85.70
2022-08-08T09:17:40.760Z,85.80
2022-08-08T09:22:01.321Z,85.30
2022-08-08T09:23:02.812Z,85.20
2022-08-08T09:25:35.996Z,84.90
2022-08-08T09:28:38.278Z,84.00
2022-08-08T09:31:16.411Z,82.90
2022-08-08T09:34:28.388Z,83.00
2022-08-08T09:36:51.479Z,82.30
2022-08-08T09:39:44.055Z,81.40
2022-08-08T09:42:22.126Z,80.70
2022-08-08T09:45:08.229Z,79.90
2022-08-08T09:48:04.161Z,80.00
2022-08-08T09:50:43.952Z,79.80
2022-08-08T09:53:31.905Z,79.00
2022-08-08T09:56:14.400Z,78.50
2022-08-08T09:58:57.687Z,78.20
2022-08-08T10:01:59.000Z,77.70
2022-08-08T10:04:38.418Z,77.80
2022-08-08T10:07:09.562Z,76.90
2022-08-08T10:10:00.248Z,76.20
2022-08-08T10:12:53.279Z,75.90
2022-08-08T10:15:26.458Z,75.50
2022-08-08T10:18:06.233Z,74.90
2022-08-08T10:20:51.417Z,75.40
2022-08-08T10:23:44.046Z,73.00
2022-08-08T10:26:30.242Z,72.30
2022-08-08T10:29:05.342Z,71.80
2022-08-08T10:31:52.805Z,72.10
2022-08-08T10:34:27.254Z,72.30
2022-08-08T10:36:59.894Z,73.00
2022-08-08T10:39:31.839Z,72.30
2022-08-08T10:42:16.487Z,71.20
2022-08-08T10:44:46.085Z,70.30
2022-08-08T10:47:21.145Z,70.00
2022-08-08T10:50:01.871Z,70.40
2022-08-08T10:52:32.584Z,70.20
2022-08-08T10:55:06.548Z,70.30
2022-08-08T10:57:45.489Z,70.50
2022-08-08T11:00:25.752Z,70.30
2022-08-08T11:02:54.234Z,70.00
2022-08-08T11:05:23.441Z,69.80
2022-08-08T11:08:38.761Z,69.50
2022-08-08T11:10:42.550Z,69.60
2022-08-08T11:13:30.130Z,69.30
2022-08-08T11:16:07.441Z,69.20
2022-08-08T11:18:37.417Z,68.80
2022-08-08T11:21:09.929Z,69.30
2022-08-08T11:23:42.972Z,68.90
2022-08-08T11:26:19.124Z,68.80
2022-08-08T11:28:50.611Z,68.40
2022-08-08T11:31:21.075Z,68.90
2022-08-08T11:34:01.961Z,69.40
2022-08-08T11:36:36.489Z,70.80
2022-08-08T11:39:12.703Z,71.00
2022-08-08T11:41:44.956Z,71.00
2022-08-08T11:44:15.839Z,69.90
2022-08-08T11:46:44.955Z,70.90
2022-08-08T11:49:21.023Z,70.60
2022-08-08T11:51:52.428Z,70.10
2022-08-08T11:54:34.308Z,71.40
2022-08-08T11:57:14.630Z,70.60
2022-08-08T12:00:01.122Z,71.50
2022-08-08T12:02:48.402Z,71.60
2022-08-08T12:05:22.384Z,72.30
2022-08-08T12:07:53.550Z,69.80
2022-08-08T12:10:23.186Z,68.70
2022-08-08T12:13:02.976Z,69.20
2022-08-08T12:15:42.979Z,71.90
2022-08-08T12:18:21.492Z,71.80
2022-08-08T12:20:54.137Z,72.20
2022-08-08T12:23:43.861Z,71.20
2022-08-08T12:26:27.315Z,71.00
2022-08-08T12:29:21.211Z,72.10
2022-08-08T12:32:02.618Z,72.30
2022-08-08T12:34:37.117Z,71.70
2022-08-08T12:37:08.121Z,71.30
2022-08-08T12:40:00.256Z,71.50
2022-08-08T12:42:27.287Z,71.20
2022-08-08T12:45:54.237Z,70.20
2022-08-08T12:48:10.601Z,71.00
2022-08-08T12:50:54.672Z,70.70
2022-08-08T12:53:30.161Z,69.60
2022-08-08T12:56:08.883Z,69.10
2022-08-08T12:58:47.898Z,69.10
2022-08-08T13:01:28.817Z,68.90
2022-08-08T13:04:18.764Z,68.60
2022-08-08T13:06:57.103Z,68.70
2022-08-08T13:10:04.757Z,68.80
2022-08-08T13:12:36.581Z,68.30
2022-08-08T13:15:07.823Z,67.70
2022-08-08T13:17:54.151Z,67.70
2022-08-08T13:20:27.559Z,68.00
2022-08-08T13:23:35.986Z,66.90
2022-08-08T13:25:58.724Z,66.90
2022-08-08T13:28:32.888Z,66.70
2022-08-08T13:31:04.132Z,67.00
2022-08-08T13:33:42.538Z,66.90
2022-08-08T13:36:11.945Z,66.20
2022-08-08T13:38:40.164Z,66.00
2022-08-08T13:41:16.165Z,66.10
2022-08-08T13:43:47.233Z,65.60
2022-08-08T13:46:27.443Z,64.80
2022-08-08T13:50:33.791Z,65.30
2022-08-08T13:51:57.570Z,64.60
2022-08-08T13:54:31.400Z,64.10
2022-08-08T13:57:01.400Z,63.60
2022-08-08T13:59:33.889Z,63.30
2022-08-08T14:02:16.183Z,62.70
2022-08-08T14:05:04.683Z,63.00
2022-08-08T14:07:42.285Z,62.70
2022-08-08T14:10:17.153Z,62.40
2022-08-08T14:12:46.698Z,61.80
2022-08-08T14:15:31.436Z,61.60
2022-08-08T14:18:37.030Z,61.70
2022-08-08T14:21:05.328Z,61.70
2022-08-08T14:24:04.654Z,61.10
2022-08-08T14:26:33.409Z,60.80
2022-08-08T14:29:06.150Z,60.40
2022-08-08T14:32:11.487Z,59.90
2022-08-08T14:34:39.449Z,59.70
2022-08-08T14:37:12.875Z,59.60
2022-08-08T14:39:48.233Z,59.60
2022-08-08T14:42:17.696Z,59.00
2022-08-08T14:45:00.354Z,58.70
2022-08-08T14:47:36.163Z,58.90
2022-08-08T14:50:16.373Z,59.40
2022-08-08T14:53:03.601Z,58.50
2022-08-08T14:55:35.564Z,58.90
2022-08-08T14:58:16.986Z,58.30
2022-08-08T15:00:49.651Z,58.50
2022-08-08T15:03:18.661Z,57.70
2022-08-08T15:05:53.392Z,56.80
2022-08-08T15:08:33.516Z,56.30
2022-08-08T15:11:09.301Z,56.00
2022-08-08T15:14:00.865Z,54.40
2022-08-08T15:16:28.704Z,54.10
2022-08-08T15:18:56.831Z,54.00
2022-08-08T15:21:27.823Z,53.70
2022-08-08T15:24:00.154Z,53.30
2022-08-08T15:26:29.259Z,53.50
2022-08-08T15:28:58.287Z,53.30
2022-08-08T15:32:02.680Z,53.60
2022-08-08T15:34:28.810Z,53.30
2022-08-08T15:36:57.481Z,53.40
2022-08-08T15:39:28.879Z,53.10
2022-08-08T15:41:59.631Z,52.60
2022-08-08T15:44:29.995Z,51.90
2022-08-08T15:46:59.652Z,52.30
2022-08-08T15:49:29.381Z,53.30
2022-08-08T15:51:57.646Z,53.60
2022-08-08T15:54:38.254Z,55.00
2022-08-08T15:57:09.346Z,56.80
2022-08-08T16:00:06.075Z,58.20
2022-08-08T16:02:30.511Z,59.10
2022-08-08T16:04:59.957Z,60.20
2022-08-08T16:07:39.661Z,61.00
2022-08-08T16:13:11.082Z,61.00
2022-08-08T16:13:32.397Z,61.30
2022-08-08T16:15:58.324Z,62.10
2022-08-08T16:18:34.992Z,61.80
2022-08-08T16:21:18.266Z,62.30
2022-08-08T16:23:55.691Z,62.60
2022-08-08T16:26:32.772Z,63.00
2022-08-08T16:29:01.421Z,63.10
2022-08-08T16:31:31.474Z,62.90
2022-08-08T16:34:00.058Z,63.30
2022-08-08T16:36:33.333Z,63.00
2022-08-08T16:39:09.695Z,62.70
2022-08-08T16:41:51.253Z,63.20
2022-08-08T16:44:27.853Z,62.10
2022-08-08T16:47:16.913Z,62.20
2022-08-08T16:49:47.853Z,63.00
2022-08-08T16:55:05.725Z,64.00
2022-08-08T16:55:25.499Z,62.90
2022-08-08T16:58:14.834Z,62.70
2022-08-08T17:00:48.812Z,63.10
2022-08-08T17:03:18.154Z,63.30
2022-08-08T17:05:56.378Z,63.60
2022-08-08T17:08:24.561Z,63.90
2022-08-08T17:10:58.687Z,64.20
2022-08-08T17:13:40.953Z,64.60
2022-08-08T17:16:17.990Z,64.80
2022-08-08T17:18:52.530Z,64.90
2022-08-08T17:21:21.563Z,64.60
2022-08-08T17:24:01.766Z,64.80
2022-08-08T17:26:32.431Z,64.70
2022-08-08T17:29:03.933Z,64.60
2022-08-08T17:31:44.352Z,64.50
2022-08-08T17:34:36.107Z,64.90
2022-08-08T17:37:09.283Z,65.10
2022-08-08T17:40:03.991Z,65.20
2022-08-08T17:42:29.506Z,65.20
2022-08-08T17:44:58.999Z,64.90
2022-08-08T17:47:37.508Z,64.40
2022-08-08T17:50:10.267Z,64.50
2022-08-08T17:52:43.219Z,64.80
2022-08-08T17:56:05.924Z,64.70
2022-08-08T17:58:01.942Z,65.00
2022-08-08T18:00:31.933Z,65.20
2022-08-08T18:03:08.904Z,65.40
2022-08-08T18:05:48.294Z,65.50
2022-08-08T18:08:38.229Z,65.10
2022-08-08T18:11:09.263Z,65.20
2022-08-08T18:13:42.040Z,65.30
2022-08-08T18:16:12.741Z,65.60
2022-08-08T18:18:45.442Z,65.50
2022-08-08T18:21:34.900Z,65.70
2022-08-08T18:24:17.589Z,65.80
2022-08-08T18:26:54.386Z,66.10
2022-08-08T18:29:33.000Z,66.30
2022-08-08T18:32:05.208Z,66.40
2022-08-08T18:34:34.232Z,66.20
2022-08-08T18:37:06.599Z,66.40
2022-08-08T18:39:37.683Z,66.50
2022-08-08T18:42:13.830Z,66.60
2022-08-08T18:44:55.150Z,66.60
2022-08-08T18:47:26.596Z,67.00
2022-08-08T18:49:58.805Z,67.20
2022-08-08T18:52:29.688Z,67.30
2022-08-08T18:55:00.131Z,67.60
2022-08-08T18:57:41.816Z,67.60
2022-08-08T19:00:15.614Z,67.80
2022-08-08T19:02:56.136Z,67.90
2022-08-08T19:05:30.249Z,67.90
2022-08-08T19:08:09.598Z,68.10
2022-08-08T19:10:37.842Z,68.10
2022-08-08T19:13:10.662Z,68.30
2022-08-08T19:15:48.810Z,68.30
2022-08-08T19:18:31.903Z,68.60
2022-08-08T19:21:03.685Z,68.60
2022-08-08T19:23:51.821Z,69.00
2022-08-08T19:26:30.461Z,68.80
2022-08-08T19:28:59.655Z,68.90
2022-08-08T19:31:31.374Z,69.00
2022-08-08T19:34:35.457Z,69.10
2022-08-08T19:36:55.350Z,69.10
2022-08-08T19:39:26.684Z,69.30
2022-08-08T19:42:04.571Z,69.40
2022-08-08T19:44:42.683Z,69.70
2022-08-08T19:47:14.233Z,69.60
2022-08-08T19:49:59.576Z,69.70
2022-08-08T19:52:35.189Z,69.90
2022-08-08T19:55:08.734Z,70.10
2022-08-08T19:57:37.939Z,70.90
2022-08-08T20:00:11.015Z,70.40
2022-08-08T20:02:39.858Z,70.50
2022-08-08T20:05:11.320Z,70.60
2022-08-08T20:08:30.851Z,70.80
2022-08-08T20:10:28.970Z,70.90
2022-08-08T20:12:58.965Z,71.10
2022-08-08T20:16:00.337Z,71.30
2022-08-08T20:18:20.892Z,71.50
2022-08-08T20:20:59.482Z,71.70
2022-08-08T20:23:28.402Z,71.80
2022-08-08T20:25:56.497Z,72.10
2022-08-08T20:28:32.671Z,72.40
2022-08-08T20:31:01.227Z,72.50
2022-08-08T20:34:27.050Z,72.50
2022-08-08T20:36:22.321Z,72.70
2022-08-08T20:38:50.667Z,72.90
2022-08-08T20:41:19.298Z,73.10
2022-08-08T20:43:49.963Z,73.30
2022-08-08T20:46:20.845Z,73.50
2022-08-08T20:48:51.156Z,73.60
2022-08-08T20:51:21.194Z,73.70
2022-08-08T20:53:59.012Z,73.80
2022-08-08T20:56:35.611Z,73.90
2022-08-08T20:59:08.747Z,74.00
2022-08-08T21:02:06.602Z,74.20
2022-08-08T21:04:27.511Z,74.30
2022-08-08T21:06:57.603Z,74.40
2022-08-08T21:09:31.728Z,74.60
2022-08-08T21:12:14.175Z,74.70
2022-08-08T21:14:49.239Z,74.90
2022-08-08T21:17:17.503Z,75.00
2022-08-08T21:19:47.922Z,75.20
2022-08-08T21:22:17.413Z,75.40
2022-08-08T21:24:53.020Z,75.50
2022-08-08T21:27:38.890Z,75.70
2022-08-08T21:30:18.676Z,75.80
2022-08-08T21:32:51.111Z,75.90
2022-08-08T21:36:16.453Z,76.10
2022-08-08T21:38:11.979Z,76.40
2022-08-08T21:40:56.239Z,76.60
2022-08-08T21:43:33.587Z,76.80
2022-08-08T21:48:05.750Z,77.00
2022-08-08T21:48:53.243Z,77.20
2022-08-08T21:54:32.398Z,77.30
2022-08-08T21:54:35.371Z,77.40
2022-08-08T21:57:02.712Z,77.60
2022-08-08T22:00:02.600Z,77.70
2022-08-08T22:02:23.454Z,77.80
2022-08-08T22:04:55.806Z,77.90
2022-08-08T22:07:39.939Z,78.00
2022-08-08T22:10:18.149Z,78.00
2022-08-08T22:13:16.736Z,78.20
2022-08-08T22:15:59.108Z,78.30
2022-08-08T22:18:30.293Z,78.50
2022-08-08T22:21:01.350Z,78.50
2022-08-08T22:23:41.080Z,78.60
2022-08-08T22:26:28.950Z,78.70
2022-08-08T22:29:14.680Z,78.90
2022-08-08T22:31:58.676Z,79.20
2022-08-08T22:34:32.042Z,80.20
2022-08-08T22:37:00.261Z,79.70
2022-08-08T22:39:46.359Z,80.00
2022-08-08T22:42:24.210Z,80.20
2022-08-08T22:44:56.111Z,80.50
2022-08-08T22:47:37.895Z,80.80
2022-08-08T22:50:09.636Z,80.80
2022-08-08T22:54:19.642Z,81.10
2022-08-08T22:55:59.720Z,81.50
2022-08-08T22:58:34.226Z,81.60
2022-08-08T23:01:30.265Z,81.60
2022-08-08T23:03:53.727Z,81.80
2022-08-08T23:06:24.126Z,81.70
2022-08-08T23:08:55.097Z,82.10
2022-08-08T23:12:17.571Z,82.40
2022-08-08T23:14:19.188Z,82.50
2022-08-08T23:16:57.684Z,82.50
2022-08-08T23:19:27.874Z,82.90
2022-08-08T23:22:01.569Z,82.70
2022-08-08T23:24:36.162Z,82.80
2022-08-08T23:27:05.673Z,83.10
2022-08-08T23:29:35.691Z,82.80
2022-08-08T23:32:06.238Z,82.80
2022-08-08T23:34:39.121Z,82.80
2022-08-08T23:37:17.944Z,83.40
2022-08-08T23:39:55.327Z,83.60
2022-08-08T23:42:25.926Z,83.70
2022-08-08T23:44:57.237Z,83.10
2022-08-08T23:49:05.196Z,83.40
2022-08-08T23:50:30.045Z,83.60
2022-08-08T23:53:05.330Z,83.60
2022-08-08T23:55:41.994Z,84.40
2022-08-08T23:58:31.820Z,84.50
